sensor_id;sensor_type;location;lat;lon;timestamp;P1;durP1;ratioP1;P2;durP2;ratioP2
25153;SDS011;47555;51.038;6.280;2023-02-27T00:02:09;8.20;;;4.80;;
25153;SDS011;47555;51.038;6.280;2023-02-27T00:04:35;5.28;;;3.90;;
25153;SDS011;47555;51.038;6.280;2023-02-27T00:07:00;8.30;;;4.10;;
25153;SDS011;47555;51.038;6.280;2023-02-27T00:09:26;6.20;;;3.72;;
25153;SDS011;47555;51.038;6.280;2023-02-27T00:11:51;4.35;;;3.58;;
25153;SDS011;47555;51.038;6.280;2023-02-27T00:14:17;6.57;;;4.07;;
25153;SDS011;47555;51.038;6.280;2023-02-27T00:16:42;6.68;;;3.60;;
25153;SDS011;47555;51.038;6.280;2023-02-27T00:19:08;5.50;;;3.40;;
25153;SDS011;47555;51.038;6.280;2023-02-27T00:21:34;6.53;;;4.60;;
25153;SDS011;47555;51.038;6.280;2023-02-27T00:24:00;5.88;;;3.50;;
25153;SDS011;47555;51.038;6.280;2023-02-27T00:26:26;5.65;;;4.13;;
25153;SDS011;47555;51.038;6.280;2023-02-27T00:28:52;4.30;;;3.50;;
25153;SDS011;47555;51.038;6.280;2023-02-27T00:31:17;6.47;;;3.47;;
25153;SDS011;47555;51.038;6.280;2023-02-27T00:33:43;6.38;;;3.53;;
25153;SDS011;47555;51.038;6.280;2023-02-27T00:36:08;5.40;;;3.75;;
25153;SDS011;47555;51.038;6.280;2023-02-27T00:38:34;7.25;;;3.63;;
25153;SDS011;47555;51.038;6.280;2023-02-27T00:41:00;4.32;;;3.08;;
25153;SDS011;47555;51.038;6.280;2023-02-27T00:43:25;5.65;;;3.13;;
25153;SDS011;47555;51.038;6.280;2023-02-27T00:45:51;6.03;;;3.72;;
25153;SDS011;47555;51.038;6.280;2023-02-27T00:48:17;7.38;;;3.75;;
25153;SDS011;47555;51.038;6.280;2023-02-27T00:50:43;4.85;;;3.42;;
25153;SDS011;47555;51.038;6.280;2023-02-27T00:53:09;5.38;;;3.33;;
25153;SDS011;47555;51.038;6.280;2023-02-27T00:55:34;4.88;;;3.55;;
25153;SDS011;47555;51.038;6.280;2023-02-27T00:58:00;4.95;;;3.05;;
25153;SDS011;47555;51.038;6.280;2023-02-27T01:00:25;4.88;;;3.83;;
25153;SDS011;47555;51.038;6.280;2023-02-27T01:02:51;6.03;;;3.90;;
25153;SDS011;47555;51.038;6.280;2023-02-27T01:05:17;4.43;;;3.50;;
25153;SDS011;47555;51.038;6.280;2023-02-27T01:07:42;6.40;;;3.40;;
25153;SDS011;47555;51.038;6.280;2023-02-27T01:10:08;4.97;;;3.53;;
25153;SDS011;47555;51.038;6.280;2023-02-27T01:12:34;5.55;;;4.00;;
25153;SDS011;47555;51.038;6.280;2023-02-27T01:15:00;6.20;;;3.83;;
25153;SDS011;47555;51.038;6.280;2023-02-27T01:17:26;7.72;;;3.92;;
25153;SDS011;47555;51.038;6.280;2023-02-27T01:19:52;5.05;;;3.70;;
25153;SDS011;47555;51.038;6.280;2023-02-27T01:22:17;4.40;;;4.00;;
25153;SDS011;47555;51.038;6.280;2023-02-27T01:24:43;5.82;;;4.43;;
25153;SDS011;47555;51.038;6.280;2023-02-27T01:27:08;6.05;;;3.55;;
25153;SDS011;47555;51.038;6.280;2023-02-27T01:29:34;6.05;;;3.55;;
25153;SDS011;47555;51.038;6.280;2023-02-27T01:32:00;4.43;;;3.60;;
25153;SDS011;47555;51.038;6.280;2023-02-27T01:34:25;6.50;;;4.05;;
25153;SDS011;47555;51.038;6.280;2023-02-27T01:36:51;8.43;;;3.65;;
25153;SDS011;47555;51.038;6.280;2023-02-27T01:39:16;5.90;;;3.83;;
25153;SDS011;47555;51.038;6.280;2023-02-27T01:41:42;5.78;;;3.83;;
25153;SDS011;47555;51.038;6.280;2023-02-27T01:44:09;7.28;;;4.07;;
25153;SDS011;47555;51.038;6.280;2023-02-27T01:46:36;6.57;;;3.95;;
25153;SDS011;47555;51.038;6.280;2023-02-27T01:49:03;6.70;;;3.85;;
25153;SDS011;47555;51.038;6.280;2023-02-27T01:51:40;5.95;;;3.80;;
25153;SDS011;47555;51.038;6.280;2023-02-27T01:54:08;5.22;;;3.53;;
25153;SDS011;47555;51.038;6.280;2023-02-27T01:56:36;8.13;;;4.03;;
25153;SDS011;47555;51.038;6.280;2023-02-27T01:59:03;5.63;;;3.58;;
25153;SDS011;47555;51.038;6.280;2023-02-27T02:01:31;6.80;;;3.65;;
25153;SDS011;47555;51.038;6.280;2023-02-27T02:06:26;6.85;;;4.28;;
25153;SDS011;47555;51.038;6.280;2023-02-27T02:08:55;5.03;;;3.95;;
25153;SDS011;47555;51.038;6.280;2023-02-27T02:11:23;6.70;;;4.05;;
25153;SDS011;47555;51.038;6.280;2023-02-27T02:13:52;5.72;;;3.30;;
25153;SDS011;47555;51.038;6.280;2023-02-27T02:16:28;5.75;;;3.60;;
25153;SDS011;47555;51.038;6.280;2023-02-27T02:24:34;11.18;;;4.32;;
25153;SDS011;47555;51.038;6.280;2023-02-27T02:27:28;5.90;;;3.80;;
25153;SDS011;47555;51.038;6.280;2023-02-27T02:30:13;8.75;;;3.38;;
25153;SDS011;47555;51.038;6.280;2023-02-27T02:38:31;5.30;;;3.53;;
25153;SDS011;47555;51.038;6.280;2023-02-27T02:41:33;5.88;;;4.03;;
25153;SDS011;47555;51.038;6.280;2023-02-27T02:44:17;5.13;;;3.40;;
25153;SDS011;47555;51.038;6.280;2023-02-27T02:49:49;5.07;;;3.97;;
25153;SDS011;47555;51.038;6.280;2023-02-27T02:52:31;5.43;;;3.70;;
25153;SDS011;47555;51.038;6.280;2023-02-27T02:55:28;8.82;;;3.83;;
25153;SDS011;47555;51.038;6.280;2023-02-27T03:00:54;5.55;;;3.50;;
25153;SDS011;47555;51.038;6.280;2023-02-27T03:03:27;4.50;;;3.47;;
25153;SDS011;47555;51.038;6.280;2023-02-27T03:06:15;7.28;;;3.88;;
25153;SDS011;47555;51.038;6.280;2023-02-27T03:08:48;4.80;;;3.80;;
25153;SDS011;47555;51.038;6.280;2023-02-27T03:11:19;6.00;;;3.72;;
25153;SDS011;47555;51.038;6.280;2023-02-27T03:16:24;4.72;;;3.35;;
25153;SDS011;47555;51.038;6.280;2023-02-27T03:19:03;5.30;;;3.63;;
25153;SDS011;47555;51.038;6.280;2023-02-27T03:24:40;6.25;;;4.13;;
25153;SDS011;47555;51.038;6.280;2023-02-27T03:27:09;4.95;;;3.40;;
25153;SDS011;47555;51.038;6.280;2023-02-27T03:32:08;7.40;;;3.85;;
25153;SDS011;47555;51.038;6.280;2023-02-27T03:34:48;5.32;;;3.58;;
25153;SDS011;47555;51.038;6.280;2023-02-27T03:40:34;4.75;;;3.28;;
25153;SDS011;47555;51.038;6.280;2023-02-27T03:48:03;5.55;;;3.85;;
25153;SDS011;47555;51.038;6.280;2023-02-27T03:50:31;6.53;;;3.90;;
25153;SDS011;47555;51.038;6.280;2023-02-27T03:52:57;7.15;;;4.20;;
25153;SDS011;47555;51.038;6.280;2023-02-27T03:55:31;5.43;;;3.78;;
25153;SDS011;47555;51.038;6.280;2023-02-27T03:58:00;5.35;;;3.50;;
25153;SDS011;47555;51.038;6.280;2023-02-27T04:00:25;7.28;;;4.15;;
25153;SDS011;47555;51.038;6.280;2023-02-27T04:02:53;5.70;;;4.07;;
25153;SDS011;47555;51.038;6.280;2023-02-27T04:05:21;6.22;;;3.80;;
25153;SDS011;47555;51.038;6.280;2023-02-27T04:10:54;5.75;;;4.10;;
25153;SDS011;47555;51.038;6.280;2023-02-27T04:13:55;6.50;;;3.88;;
25153;SDS011;47555;51.038;6.280;2023-02-27T04:16:50;5.53;;;3.50;;
25153;SDS011;47555;51.038;6.280;2023-02-27T04:19:35;8.70;;;4.32;;
25153;SDS011;47555;51.038;6.280;2023-02-27T04:25:03;5.50;;;4.00;;
25153;SDS011;47555;51.038;6.280;2023-02-27T04:35:28;9.07;;;4.65;;
25153;SDS011;47555;51.038;6.280;2023-02-27T04:38:02;8.52;;;4.45;;
25153;SDS011;47555;51.038;6.280;2023-02-27T04:40:42;6.00;;;4.53;;
25153;SDS011;47555;51.038;6.280;2023-02-27T04:43:13;6.65;;;4.07;;
25153;SDS011;47555;51.038;6.280;2023-02-27T04:45:40;8.60;;;4.85;;
25153;SDS011;47555;51.038;6.280;2023-02-27T04:48:12;7.05;;;5.13;;
25153;SDS011;47555;51.038;6.280;2023-02-27T04:51:03;7.22;;;4.00;;
25153;SDS011;47555;51.038;6.280;2023-02-27T04:56:44;7.82;;;4.78;;
25153;SDS011;47555;51.038;6.280;2023-02-27T04:59:19;6.78;;;4.28;;
25153;SDS011;47555;51.038;6.280;2023-02-27T05:01:53;9.27;;;5.10;;
25153;SDS011;47555;51.038;6.280;2023-02-27T05:06:49;8.80;;;4.65;;
25153;SDS011;47555;51.038;6.280;2023-02-27T05:12:35;8.18;;;4.40;;
25153;SDS011;47555;51.038;6.280;2023-02-27T05:15:06;10.02;;;5.30;;
25153;SDS011;47555;51.038;6.280;2023-02-27T05:20:23;7.13;;;4.57;;
25153;SDS011;47555;51.038;6.280;2023-02-27T05:22:55;9.15;;;4.90;;
25153;SDS011;47555;51.038;6.280;2023-02-27T05:25:28;5.68;;;4.70;;
25153;SDS011;47555;51.038;6.280;2023-02-27T05:33:31;7.93;;;5.10;;
25153;SDS011;47555;51.038;6.280;2023-02-27T05:38:42;9.57;;;5.35;;
25153;SDS011;47555;51.038;6.280;2023-02-27T05:41:17;8.07;;;5.30;;
25153;SDS011;47555;51.038;6.280;2023-02-27T05:43:48;7.20;;;5.47;;
25153;SDS011;47555;51.038;6.280;2023-02-27T05:46:22;8.43;;;5.63;;
25153;SDS011;47555;51.038;6.280;2023-02-27T05:49:11;8.52;;;5.38;;
25153;SDS011;47555;51.038;6.280;2023-02-27T05:51:45;10.15;;;5.63;;
25153;SDS011;47555;51.038;6.280;2023-02-27T05:54:15;10.52;;;5.60;;
25153;SDS011;47555;51.038;6.280;2023-02-27T05:57:00;10.90;;;5.57;;
25153;SDS011;47555;51.038;6.280;2023-02-27T05:59:33;7.38;;;5.82;;
25153;SDS011;47555;51.038;6.280;2023-02-27T06:02:03;8.63;;;5.82;;
25153;SDS011;47555;51.038;6.280;2023-02-27T06:04:29;10.27;;;6.15;;
25153;SDS011;47555;51.038;6.280;2023-02-27T06:06:55;10.60;;;5.70;;
25153;SDS011;47555;51.038;6.280;2023-02-27T06:09:21;12.73;;;6.32;;
25153;SDS011;47555;51.038;6.280;2023-02-27T06:11:47;6.80;;;5.20;;
25153;SDS011;47555;51.038;6.280;2023-02-27T06:14:12;8.43;;;5.63;;
25153;SDS011;47555;51.038;6.280;2023-02-27T06:16:38;9.63;;;5.90;;
25153;SDS011;47555;51.038;6.280;2023-02-27T06:19:04;9.00;;;6.00;;
25153;SDS011;47555;51.038;6.280;2023-02-27T06:21:30;8.10;;;5.38;;
25153;SDS011;47555;51.038;6.280;2023-02-27T06:23:56;7.28;;;5.45;;
25153;SDS011;47555;51.038;6.280;2023-02-27T06:26:21;7.43;;;5.60;;
25153;SDS011;47555;51.038;6.280;2023-02-27T06:28:47;12.68;;;5.88;;
25153;SDS011;47555;51.038;6.280;2023-02-27T06:31:13;7.03;;;5.57;;
25153;SDS011;47555;51.038;6.280;2023-02-27T06:33:38;10.27;;;5.88;;
25153;SDS011;47555;51.038;6.280;2023-02-27T06:36:07;9.18;;;6.30;;
25153;SDS011;47555;51.038;6.280;2023-02-27T06:38:33;12.25;;;6.88;;
25153;SDS011;47555;51.038;6.280;2023-02-27T06:40:58;9.55;;;6.57;;
25153;SDS011;47555;51.038;6.280;2023-02-27T06:43:24;10.40;;;6.63;;
25153;SDS011;47555;51.038;6.280;2023-02-27T06:45:53;9.57;;;6.80;;
25153;SDS011;47555;51.038;6.280;2023-02-27T06:48:19;9.90;;;7.28;;
25153;SDS011;47555;51.038;6.280;2023-02-27T06:50:44;9.27;;;6.68;;
25153;SDS011;47555;51.038;6.280;2023-02-27T06:53:10;12.45;;;6.43;;
25153;SDS011;47555;51.038;6.280;2023-02-27T06:55:35;9.25;;;6.20;;
25153;SDS011;47555;51.038;6.280;2023-02-27T06:58:01;10.65;;;6.35;;
25153;SDS011;47555;51.038;6.280;2023-02-27T07:00:26;8.80;;;6.00;;
25153;SDS011;47555;51.038;6.280;2023-02-27T07:02:53;8.65;;;6.78;;
25153;SDS011;47555;51.038;6.280;2023-02-27T07:05:18;12.57;;;6.88;;
25153;SDS011;47555;51.038;6.280;2023-02-27T07:07:44;9.55;;;5.93;;
25153;SDS011;47555;51.038;6.280;2023-02-27T07:10:10;8.10;;;6.07;;
25153;SDS011;47555;51.038;6.280;2023-02-27T07:12:38;9.45;;;6.00;;
25153;SDS011;47555;51.038;6.280;2023-02-27T07:15:04;8.50;;;6.25;;
25153;SDS011;47555;51.038;6.280;2023-02-27T07:17:30;9.43;;;6.13;;
25153;SDS011;47555;51.038;6.280;2023-02-27T07:19:56;8.55;;;7.18;;
25153;SDS011;47555;51.038;6.280;2023-02-27T07:22:21;7.80;;;6.10;;
25153;SDS011;47555;51.038;6.280;2023-02-27T07:24:47;14.00;;;6.95;;
25153;SDS011;47555;51.038;6.280;2023-02-27T07:27:12;9.75;;;7.03;;
25153;SDS011;47555;51.038;6.280;2023-02-27T07:29:38;12.80;;;6.75;;
25153;SDS011;47555;51.038;6.280;2023-02-27T07:32:03;11.90;;;6.70;;
25153;SDS011;47555;51.038;6.280;2023-02-27T07:34:29;9.80;;;6.80;;
25153;SDS011;47555;51.038;6.280;2023-02-27T07:36:54;10.77;;;6.65;;
25153;SDS011;47555;51.038;6.280;2023-02-27T07:39:20;15.70;;;6.28;;
25153;SDS011;47555;51.038;6.280;2023-02-27T07:41:45;9.13;;;5.90;;
25153;SDS011;47555;51.038;6.280;2023-02-27T07:44:11;7.80;;;5.93;;
25153;SDS011;47555;51.038;6.280;2023-02-27T07:46:37;9.52;;;5.22;;
25153;SDS011;47555;51.038;6.280;2023-02-27T07:49:03;8.00;;;5.57;;
25153;SDS011;47555;51.038;6.280;2023-02-27T07:51:29;6.57;;;5.47;;
25153;SDS011;47555;51.038;6.280;2023-02-27T07:53:58;8.30;;;5.60;;
25153;SDS011;47555;51.038;6.280;2023-02-27T07:56:26;11.50;;;5.82;;
25153;SDS011;47555;51.038;6.280;2023-02-27T07:58:52;8.55;;;5.28;;
25153;SDS011;47555;51.038;6.280;2023-02-27T08:01:18;10.02;;;5.68;;
25153;SDS011;47555;51.038;6.280;2023-02-27T08:03:43;8.18;;;6.05;;
25153;SDS011;47555;51.038;6.280;2023-02-27T08:06:09;9.02;;;5.80;;
25153;SDS011;47555;51.038;6.280;2023-02-27T08:08:35;8.35;;;5.43;;
25153;SDS011;47555;51.038;6.280;2023-02-27T08:11:00;9.50;;;5.60;;
25153;SDS011;47555;51.038;6.280;2023-02-27T08:13:26;9.68;;;5.90;;
25153;SDS011;47555;51.038;6.280;2023-02-27T08:15:51;8.38;;;5.18;;
25153;SDS011;47555;51.038;6.280;2023-02-27T08:18:18;8.48;;;5.00;;
25153;SDS011;47555;51.038;6.280;2023-02-27T08:20:44;7.53;;;5.10;;
25153;SDS011;47555;51.038;6.280;2023-02-27T08:23:09;11.10;;;6.00;;
25153;SDS011;47555;51.038;6.280;2023-02-27T08:25:35;12.38;;;6.13;;
25153;SDS011;47555;51.038;6.280;2023-02-27T08:28:01;9.30;;;5.00;;
25153;SDS011;47555;51.038;6.280;2023-02-27T08:30:27;8.60;;;5.72;;
25153;SDS011;47555;51.038;6.280;2023-02-27T08:32:52;9.55;;;5.63;;
25153;SDS011;47555;51.038;6.280;2023-02-27T08:35:19;5.53;;;4.93;;
25153;SDS011;47555;51.038;6.280;2023-02-27T08:37:45;9.13;;;5.22;;
25153;SDS011;47555;51.038;6.280;2023-02-27T08:40:11;7.05;;;4.50;;
25153;SDS011;47555;51.038;6.280;2023-02-27T08:42:36;6.10;;;4.38;;
25153;SDS011;47555;51.038;6.280;2023-02-27T08:45:03;9.55;;;4.80;;
25153;SDS011;47555;51.038;6.280;2023-02-27T08:47:29;8.35;;;4.65;;
25153;SDS011;47555;51.038;6.280;2023-02-27T08:49:54;8.00;;;4.32;;
25153;SDS011;47555;51.038;6.280;2023-02-27T08:52:20;7.70;;;4.38;;
25153;SDS011;47555;51.038;6.280;2023-02-27T08:54:46;5.45;;;3.88;;
25153;SDS011;47555;51.038;6.280;2023-02-27T08:57:12;5.38;;;4.10;;
25153;SDS011;47555;51.038;6.280;2023-02-27T08:59:37;7.32;;;3.85;;
25153;SDS011;47555;51.038;6.280;2023-02-27T09:02:03;6.68;;;4.10;;
25153;SDS011;47555;51.038;6.280;2023-02-27T09:04:28;6.25;;;3.85;;
25153;SDS011;47555;51.038;6.280;2023-02-27T09:06:54;9.77;;;5.00;;
25153;SDS011;47555;51.038;6.280;2023-02-27T09:09:20;7.93;;;4.45;;
25153;SDS011;47555;51.038;6.280;2023-02-27T09:11:47;6.43;;;3.78;;
25153;SDS011;47555;51.038;6.280;2023-02-27T09:14:16;4.75;;;3.30;;
25153;SDS011;47555;51.038;6.280;2023-02-27T09:16:42;4.22;;;3.08;;
25153;SDS011;47555;51.038;6.280;2023-02-27T09:19:09;5.00;;;3.53;;
25153;SDS011;47555;51.038;6.280;2023-02-27T09:21:34;4.75;;;3.67;;
25153;SDS011;47555;51.038;6.280;2023-02-27T09:24:01;7.25;;;3.72;;
25153;SDS011;47555;51.038;6.280;2023-02-27T09:26:28;4.90;;;4.03;;
25153;SDS011;47555;51.038;6.280;2023-02-27T09:28:53;6.03;;;4.18;;
25153;SDS011;47555;51.038;6.280;2023-02-27T09:31:19;5.70;;;3.88;;
25153;SDS011;47555;51.038;6.280;2023-02-27T09:33:44;5.20;;;3.60;;
25153;SDS011;47555;51.038;6.280;2023-02-27T09:36:10;7.25;;;4.05;;
25153;SDS011;47555;51.038;6.280;2023-02-27T09:38:36;7.18;;;3.83;;
25153;SDS011;47555;51.038;6.280;2023-02-27T09:41:03;7.00;;;4.05;;
25153;SDS011;47555;51.038;6.280;2023-02-27T09:43:38;6.30;;;3.90;;
25153;SDS011;47555;51.038;6.280;2023-02-27T09:46:08;8.25;;;3.60;;
25153;SDS011;47555;51.038;6.280;2023-02-27T09:48:48;5.63;;;3.90;;
25153;SDS011;47555;51.038;6.280;2023-02-27T09:51:17;4.47;;;3.35;;
25153;SDS011;47555;51.038;6.280;2023-02-27T09:53:45;4.68;;;3.70;;
25153;SDS011;47555;51.038;6.280;2023-02-27T09:56:23;5.80;;;3.70;;
25153;SDS011;47555;51.038;6.280;2023-02-27T09:59:15;5.68;;;3.60;;
25153;SDS011;47555;51.038;6.280;2023-02-27T10:01:42;5.03;;;3.45;;
25153;SDS011;47555;51.038;6.280;2023-02-27T10:07:00;4.28;;;3.53;;
25153;SDS011;47555;51.038;6.280;2023-02-27T10:09:30;4.10;;;2.70;;
25153;SDS011;47555;51.038;6.280;2023-02-27T10:14:42;5.45;;;2.30;;
25153;SDS011;47555;51.038;6.280;2023-02-27T10:17:14;3.60;;;2.35;;
25153;SDS011;47555;51.038;6.280;2023-02-27T10:19:51;3.63;;;2.25;;
25153;SDS011;47555;51.038;6.280;2023-02-27T10:22:21;4.40;;;2.35;;
25153;SDS011;47555;51.038;6.280;2023-02-27T10:24:59;4.40;;;2.75;;
25153;SDS011;47555;51.038;6.280;2023-02-27T10:27:28;2.78;;;2.30;;
25153;SDS011;47555;51.038;6.280;2023-02-27T10:29:57;4.47;;;2.20;;
25153;SDS011;47555;51.038;6.280;2023-02-27T10:32:41;3.53;;;2.40;;
25153;SDS011;47555;51.038;6.280;2023-02-27T10:35:11;2.88;;;2.55;;
25153;SDS011;47555;51.038;6.280;2023-02-27T10:38:02;5.13;;;2.70;;
25153;SDS011;47555;51.038;6.280;2023-02-27T10:40:31;2.75;;;2.08;;
25153;SDS011;47555;51.038;6.280;2023-02-27T10:43:00;6.00;;;2.92;;
25153;SDS011;47555;51.038;6.280;2023-02-27T10:45:26;4.10;;;2.50;;
25153;SDS011;47555;51.038;6.280;2023-02-27T10:47:52;4.57;;;2.97;;
25153;SDS011;47555;51.038;6.280;2023-02-27T10:50:27;7.00;;;3.40;;
25153;SDS011;47555;51.038;6.280;2023-02-27T10:52:58;5.00;;;3.25;;
25153;SDS011;47555;51.038;6.280;2023-02-27T10:55:32;3.50;;;3.03;;
25153;SDS011;47555;51.038;6.280;2023-02-27T10:58:01;4.63;;;2.80;;
25153;SDS011;47555;51.038;6.280;2023-02-27T11:00:29;5.38;;;3.05;;
25153;SDS011;47555;51.038;6.280;2023-02-27T11:03:05;4.05;;;2.60;;
25153;SDS011;47555;51.038;6.280;2023-02-27T11:05:39;6.25;;;3.03;;
25153;SDS011;47555;51.038;6.280;2023-02-27T11:10:54;2.97;;;2.40;;
25153;SDS011;47555;51.038;6.280;2023-02-27T11:13:29;2.80;;;2.50;;
25153;SDS011;47555;51.038;6.280;2023-02-27T11:16:13;4.80;;;2.70;;
25153;SDS011;47555;51.038;6.280;2023-02-27T11:18:44;4.53;;;3.08;;
25153;SDS011;47555;51.038;6.280;2023-02-27T11:21:15;3.72;;;2.53;;
25153;SDS011;47555;51.038;6.280;2023-02-27T11:34:34;3.90;;;2.72;;
25153;SDS011;47555;51.038;6.280;2023-02-27T11:37:17;3.58;;;1.80;;
25153;SDS011;47555;51.038;6.280;2023-02-27T11:39:47;2.95;;;1.67;;
25153;SDS011;47555;51.038;6.280;2023-02-27T11:42:16;3.10;;;1.60;;
25153;SDS011;47555;51.038;6.280;2023-02-27T11:45:07;4.10;;;1.83;;
25153;SDS011;47555;51.038;6.280;2023-02-27T11:48:01;2.25;;;1.83;;
25153;SDS011;47555;51.038;6.280;2023-02-27T11:53:36;4.88;;;1.85;;
25153;SDS011;47555;51.038;6.280;2023-02-27T11:56:10;3.88;;;2.05;;
25153;SDS011;47555;51.038;6.280;2023-02-27T11:58:47;2.67;;;1.90;;
25153;SDS011;47555;51.038;6.280;2023-02-27T12:01:26;2.55;;;1.83;;
25153;SDS011;47555;51.038;6.280;2023-02-27T12:04:00;4.53;;;2.30;;
25153;SDS011;47555;51.038;6.280;2023-02-27T12:06:34;2.35;;;1.70;;
25153;SDS011;47555;51.038;6.280;2023-02-27T12:09:21;3.67;;;1.98;;
25153;SDS011;47555;51.038;6.280;2023-02-27T12:11:48;2.70;;;1.75;;
25153;SDS011;47555;51.038;6.280;2023-02-27T12:14:25;4.47;;;2.08;;
25153;SDS011;47555;51.038;6.280;2023-02-27T12:22:39;2.40;;;1.52;;
25153;SDS011;47555;51.038;6.280;2023-02-27T12:30:41;6.25;;;2.00;;
25153;SDS011;47555;51.038;6.280;2023-02-27T12:33:15;2.20;;;1.83;;
25153;SDS011;47555;51.038;6.280;2023-02-27T12:35:52;3.90;;;1.80;;
25153;SDS011;47555;51.038;6.280;2023-02-27T12:38:23;4.53;;;1.98;;
25153;SDS011;47555;51.038;6.280;2023-02-27T12:43:48;2.83;;;1.70;;
25153;SDS011;47555;51.038;6.280;2023-02-27T12:49:41;5.10;;;1.42;;
25153;SDS011;47555;51.038;6.280;2023-02-27T12:57:36;1.95;;;1.33;;
25153;SDS011;47555;51.038;6.280;2023-02-27T13:00:25;3.35;;;1.60;;
25153;SDS011;47555;51.038;6.280;2023-02-27T13:05:52;2.22;;;1.60;;
25153;SDS011;47555;51.038;6.280;2023-02-27T13:08:29;3.30;;;1.50;;
25153;SDS011;47555;51.038;6.280;2023-02-27T13:14:21;3.65;;;1.65;;
25153;SDS011;47555;51.038;6.280;2023-02-27T13:17:09;5.30;;;1.92;;
25153;SDS011;47555;51.038;6.280;2023-02-27T13:20:01;4.82;;;1.85;;
25153;SDS011;47555;51.038;6.280;2023-02-27T13:22:57;4.32;;;1.73;;
25153;SDS011;47555;51.038;6.280;2023-02-27T13:25:50;2.20;;;1.77;;
25153;SDS011;47555;51.038;6.280;2023-02-27T13:28:19;3.38;;;1.73;;
25153;SDS011;47555;51.038;6.280;2023-02-27T13:31:00;3.15;;;1.70;;
25153;SDS011;47555;51.038;6.280;2023-02-27T13:33:46;3.33;;;1.95;;
25153;SDS011;47555;51.038;6.280;2023-02-27T13:36:30;3.78;;;1.95;;
25153;SDS011;47555;51.038;6.280;2023-02-27T13:39:03;3.70;;;2.15;;
25153;SDS011;47555;51.038;6.280;2023-02-27T13:41:48;2.13;;;1.92;;
25153;SDS011;47555;51.038;6.280;2023-02-27T13:46:45;3.63;;;2.40;;
25153;SDS011;47555;51.038;6.280;2023-02-27T13:54:06;2.35;;;2.10;;
25153;SDS011;47555;51.038;6.280;2023-02-27T13:56:39;2.50;;;2.20;;
25153;SDS011;47555;51.038;6.280;2023-02-27T14:02:51;3.70;;;2.50;;
25153;SDS011;47555;51.038;6.280;2023-02-27T14:04:54;2.92;;;2.47;;
25153;SDS011;47555;51.038;6.280;2023-02-27T14:07:28;4.35;;;2.45;;
25153;SDS011;47555;51.038;6.280;2023-02-27T14:10:02;3.55;;;2.83;;
25153;SDS011;47555;51.038;6.280;2023-02-27T14:12:37;5.90;;;2.60;;
25153;SDS011;47555;51.038;6.280;2023-02-27T14:15:53;3.58;;;3.17;;
25153;SDS011;47555;51.038;6.280;2023-02-27T14:17:55;5.40;;;2.92;;
25153;SDS011;47555;51.038;6.280;2023-02-27T14:25:54;6.55;;;3.35;;
25153;SDS011;47555;51.038;6.280;2023-02-27T14:28:30;4.32;;;2.92;;
25153;SDS011;47555;51.038;6.280;2023-02-27T14:31:00;4.28;;;3.00;;
25153;SDS011;47555;51.038;6.280;2023-02-27T14:33:35;4.45;;;2.65;;
25153;SDS011;47555;51.038;6.280;2023-02-27T14:36:06;3.58;;;2.78;;
25153;SDS011;47555;51.038;6.280;2023-02-27T14:38:37;3.45;;;2.83;;
25153;SDS011;47555;51.038;6.280;2023-02-27T14:43:50;4.97;;;3.13;;
25153;SDS011;47555;51.038;6.280;2023-02-27T14:46:28;3.35;;;3.10;;
25153;SDS011;47555;51.038;6.280;2023-02-27T14:49:01;4.15;;;3.80;;
25153;SDS011;47555;51.038;6.280;2023-02-27T14:51:41;4.38;;;3.63;;
25153;SDS011;47555;51.038;6.280;2023-02-27T14:59:29;5.15;;;3.35;;
25153;SDS011;47555;51.038;6.280;2023-02-27T15:01:55;5.57;;;3.58;;
25153;SDS011;47555;51.038;6.280;2023-02-27T15:04:25;7.97;;;2.80;;
25153;SDS011;47555;51.038;6.280;2023-02-27T15:06:52;3.08;;;2.78;;
25153;SDS011;47555;51.038;6.280;2023-02-27T15:09:21;4.85;;;3.58;;
25153;SDS011;47555;51.038;6.280;2023-02-27T15:11:52;6.95;;;3.58;;
25153;SDS011;47555;51.038;6.280;2023-02-27T15:14:21;6.20;;;3.90;;
25153;SDS011;47555;51.038;6.280;2023-02-27T15:16:52;4.82;;;3.10;;
25153;SDS011;47555;51.038;6.280;2023-02-27T15:19:20;5.70;;;3.10;;
25153;SDS011;47555;51.038;6.280;2023-02-27T15:21:49;5.13;;;3.65;;
25153;SDS011;47555;51.038;6.280;2023-02-27T15:27:02;3.78;;;3.17;;
25153;SDS011;47555;51.038;6.280;2023-02-27T15:29:31;4.80;;;3.75;;
25153;SDS011;47555;51.038;6.280;2023-02-27T15:34:58;5.30;;;3.40;;
25153;SDS011;47555;51.038;6.280;2023-02-27T15:37:30;3.40;;;3.10;;
25153;SDS011;47555;51.038;6.280;2023-02-27T15:39:57;3.30;;;3.00;;
25153;SDS011;47555;51.038;6.280;2023-02-27T15:42:25;6.10;;;3.25;;
25153;SDS011;47555;51.038;6.280;2023-02-27T15:44:53;3.60;;;3.00;;
25153;SDS011;47555;51.038;6.280;2023-02-27T15:47:23;3.25;;;2.95;;
25153;SDS011;47555;51.038;6.280;2023-02-27T15:49:53;4.43;;;3.25;;
25153;SDS011;47555;51.038;6.280;2023-02-27T15:54:51;5.68;;;3.50;;
25153;SDS011;47555;51.038;6.280;2023-02-27T15:57:19;4.22;;;3.55;;
25153;SDS011;47555;51.038;6.280;2023-02-27T15:59:46;5.95;;;3.65;;
25153;SDS011;47555;51.038;6.280;2023-02-27T16:02:26;5.18;;;3.20;;
25153;SDS011;47555;51.038;6.280;2023-02-27T16:05:17;4.10;;;3.70;;
25153;SDS011;47555;51.038;6.280;2023-02-27T16:07:44;4.93;;;3.60;;
25153;SDS011;47555;51.038;6.280;2023-02-27T16:10:17;6.93;;;4.05;;
25153;SDS011;47555;51.038;6.280;2023-02-27T16:12:48;4.75;;;3.70;;
25153;SDS011;47555;51.038;6.280;2023-02-27T16:18:04;6.20;;;3.85;;
25153;SDS011;47555;51.038;6.280;2023-02-27T16:20:52;5.85;;;3.55;;
25153;SDS011;47555;51.038;6.280;2023-02-27T16:23:23;3.28;;;3.08;;
25153;SDS011;47555;51.038;6.280;2023-02-27T16:26:01;4.38;;;3.10;;
25153;SDS011;47555;51.038;6.280;2023-02-27T16:31:28;5.00;;;3.20;;
25153;SDS011;47555;51.038;6.280;2023-02-27T16:33:58;6.72;;;3.53;;
25153;SDS011;47555;51.038;6.280;2023-02-27T16:36:27;4.20;;;3.38;;
25153;SDS011;47555;51.038;6.280;2023-02-27T16:38:54;4.45;;;3.30;;
25153;SDS011;47555;51.038;6.280;2023-02-27T16:41:20;3.50;;;3.20;;
25153;SDS011;47555;51.038;6.280;2023-02-27T16:43:48;4.30;;;3.50;;
25153;SDS011;47555;51.038;6.280;2023-02-27T16:46:15;5.00;;;3.70;;
25153;SDS011;47555;51.038;6.280;2023-02-27T16:48:47;5.72;;;3.60;;
25153;SDS011;47555;51.038;6.280;2023-02-27T16:51:18;4.20;;;3.80;;
25153;SDS011;47555;51.038;6.280;2023-02-27T16:53:48;5.22;;;3.33;;
25153;SDS011;47555;51.038;6.280;2023-02-27T16:56:15;4.15;;;3.63;;
25153;SDS011;47555;51.038;6.280;2023-02-27T16:58:42;5.82;;;4.00;;
25153;SDS011;47555;51.038;6.280;2023-02-27T17:01:08;4.50;;;4.10;;
25153;SDS011;47555;51.038;6.280;2023-02-27T17:03:37;5.95;;;4.60;;
25153;SDS011;47555;51.038;6.280;2023-02-27T17:06:03;4.38;;;3.83;;
25153;SDS011;47555;51.038;6.280;2023-02-27T17:08:29;8.23;;;4.03;;
25153;SDS011;47555;51.038;6.280;2023-02-27T17:10:55;8.00;;;4.70;;
25153;SDS011;47555;51.038;6.280;2023-02-27T17:13:22;4.68;;;4.00;;
25153;SDS011;47555;51.038;6.280;2023-02-27T17:15:48;3.90;;;3.60;;
25153;SDS011;47555;51.038;6.280;2023-02-27T17:18:13;5.05;;;3.65;;
25153;SDS011;47555;51.038;6.280;2023-02-27T17:20:39;6.05;;;3.97;;
25153;SDS011;47555;51.038;6.280;2023-02-27T17:23:04;5.97;;;4.38;;
25153;SDS011;47555;51.038;6.280;2023-02-27T17:25:32;5.18;;;3.85;;
25153;SDS011;47555;51.038;6.280;2023-02-27T17:27:58;6.80;;;4.72;;
25153;SDS011;47555;51.038;6.280;2023-02-27T17:30:23;5.65;;;3.88;;
25153;SDS011;47555;51.038;6.280;2023-02-27T17:32:49;6.07;;;4.10;;
25153;SDS011;47555;51.038;6.280;2023-02-27T17:35:15;4.43;;;4.00;;
25153;SDS011;47555;51.038;6.280;2023-02-27T17:37:40;4.40;;;4.00;;
25153;SDS011;47555;51.038;6.280;2023-02-27T17:40:06;7.55;;;4.25;;
25153;SDS011;47555;51.038;6.280;2023-02-27T17:42:34;6.20;;;4.70;;
25153;SDS011;47555;51.038;6.280;2023-02-27T17:45:00;6.45;;;4.18;;
25153;SDS011;47555;51.038;6.280;2023-02-27T17:47:29;5.53;;;4.30;;